PWSweather.com
Personal Weather Stations
Station Observations
KGAROSWE1
Roswell (historic Mill Village), Roswell, GA 30075

Roswell (historic Mill Village)Roswell, GA 30075

Lat: 34.014545, Lon: -84.358498

Elevation: 1025

Station Type: Davis Vantage Vue

http://www.roswellweather.net

High Low Average
Temperature 60.3°F15.7°C 26.2°F-3.2°C 52.5°F11.4°C
Dew Point 60.0°F15.6°C 22.0°F-5.6°C 51.5°F10.8°C
Winds 10.0 mph 16.1 kmh Calm Calm 2.0 mph S3.2 kmh S
Wind Gusts 16.0 mph25.7 kmh -- 5.0 mph8.0 kmh
Humidity 99% 83% 96%
Pressure 29.97 in1014.9 mb 29.62 in1003.0 mb -
Precipitation 0.00 in0.0 mm - -
Hour Temp Dew Point Humidity Winds Wind Gusts Pressure Precip Precip Rate Daily Precip Total
12:00 AM 55.6°F13.1°C 55.3°F12.9°C 99% Calm Calm 1.0 mph1.6 kmh 29.89 in1012.2 mb 0.00 in0.0 mm 0.00 in0.0 mm 0.00 in0.0 mm
12:08 AM 55.6°F13.1°C 55.3°F12.9°C 99% Calm Calm 2.0 mph3.2 kmh 29.88 in1011.9 mb 0.00 in0.0 mm 0.00 in0.0 mm 0.00 in0.0 mm
12:16 AM 55.6°F13.1°C 55.3°F12.9°C 99% 2.0 mph E3.2 kmh E 3.0 mph4.8 kmh 29.88 in1011.9 mb 0.00 in0.0 mm 0.00 in0.0 mm 0.00 in0.0 mm
12:24 AM 55.7°F13.2°C 55.4°F13.0°C 99% Calm Calm 3.0 mph4.8 kmh 29.87 in1011.5 mb 0.00 in0.0 mm 0.00 in0.0 mm 0.00 in0.0 mm
12:32 AM 55.8°F13.2°C 55.5°F13.1°C 99% Calm Calm 4.0 mph6.4 kmh 29.86 in1011.2 mb 0.00 in0.0 mm 0.00 in0.0 mm 0.00 in0.0 mm
12:40 AM 55.9°F13.3°C 55.6°F13.1°C 99% 1.0 mph E1.6 kmh E 2.0 mph3.2 kmh 29.86 in1011.2 mb 0.00 in0.0 mm 0.00 in0.0 mm 0.00 in0.0 mm
12:48 AM 55.9°F13.3°C 55.6°F13.1°C 99% Calm Calm 1.0 mph1.6 kmh 29.86 in1011.2 mb 0.00 in0.0 mm 0.00 in0.0 mm 0.00 in0.0 mm
12:56 AM 56.0°F13.3°C 55.7°F13.2°C 99% Calm Calm 2.0 mph3.2 kmh 29.85 in1010.8 mb 0.00 in0.0 mm 0.00 in0.0 mm 0.00 in0.0 mm
01:04 AM 56.0°F13.3°C 55.7°F13.2°C 99% Calm Calm 1.0 mph1.6 kmh 29.85 in1010.8 mb 0.00 in0.0 mm 0.00 in0.0 mm 0.00 in0.0 mm
01:12 AM 56.1°F13.4°C 55.8°F13.2°C 99% Calm Calm -- 29.85 in1010.8 mb 0.00 in0.0 mm 0.00 in0.0 mm 0.00 in0.0 mm
01:20 AM 56.2°F13.4°C 55.9°F13.3°C 99% Calm Calm -- 29.85 in1010.8 mb 0.00 in0.0 mm 0.00 in0.0 mm 0.00 in0.0 mm
01:28 AM 56.3°F13.5°C 56.0°F13.3°C 99% Calm Calm -- 29.84 in1010.5 mb 0.00 in0.0 mm 0.00 in0.0 mm 0.00 in0.0 mm
01:36 AM 56.4°F13.6°C 56.1°F13.4°C 99% Calm Calm 1.0 mph1.6 kmh 29.84 in1010.5 mb 0.00 in0.0 mm 0.00 in0.0 mm 0.00 in0.0 mm
01:44 AM 56.8°F13.8°C 56.5°F13.6°C 99% Calm Calm -- 29.84 in1010.5 mb 0.00 in0.0 mm 0.00 in0.0 mm 0.00 in0.0 mm
01:52 AM 56.6°F13.7°C 56.3°F13.5°C 99% Calm Calm -- 29.83 in1010.2 mb 0.00 in0.0 mm 0.00 in0.0 mm 0.00 in0.0 mm
02:00 AM 56.8°F13.8°C 56.5°F13.6°C 99% 1.0 mph E1.6 kmh E 1.0 mph1.6 kmh 29.83 in1010.2 mb 0.00 in0.0 mm 0.00 in0.0 mm 0.00 in0.0 mm
02:08 AM 57.0°F13.9°C 56.7°F13.7°C 99% Calm Calm 1.0 mph1.6 kmh 29.83 in1010.2 mb 0.00 in0.0 mm 0.00 in0.0 mm 0.00 in0.0 mm
02:16 AM 57.1°F13.9°C 56.8°F13.8°C 99% 1.0 mph E1.6 kmh E 3.0 mph4.8 kmh 29.83 in1010.2 mb 0.00 in0.0 mm 0.00 in0.0 mm 0.00 in0.0 mm
02:24 AM 57.2°F14.0°C 56.9°F13.8°C 99% Calm Calm 1.0 mph1.6 kmh 29.82 in1009.8 mb 0.00 in0.0 mm 0.00 in0.0 mm 0.00 in0.0 mm
02:32 AM 57.3°F14.1°C 57.0°F13.9°C 99% Calm Calm -- 29.82 in1009.8 mb 0.00 in0.0 mm 0.00 in0.0 mm 0.00 in0.0 mm
02:40 AM 57.2°F14.0°C 56.9°F13.8°C 99% Calm Calm -- 29.82 in1009.8 mb 0.00 in0.0 mm 0.00 in0.0 mm 0.00 in0.0 mm
02:48 AM 57.8°F14.3°C 57.5°F14.2°C 99% Calm Calm -- 29.82 in1009.8 mb 0.00 in0.0 mm 0.00 in0.0 mm 0.00 in0.0 mm
02:56 AM 57.9°F14.4°C 57.6°F14.2°C 99% 1.0 mph E1.6 kmh E 2.0 mph3.2 kmh 29.82 in1009.8 mb 0.00 in0.0 mm 0.00 in0.0 mm 0.00 in0.0 mm
03:04 AM 58.3°F14.6°C 58.0°F14.4°C 99% 2.0 mph SE3.2 kmh SE 3.0 mph4.8 kmh 29.82 in1009.8 mb 0.00 in0.0 mm 0.00 in0.0 mm 0.00 in0.0 mm
03:12 AM 58.7°F14.8°C 58.4°F14.7°C 99% Calm Calm 7.0 mph11.3 kmh 29.82 in1009.8 mb 0.00 in0.0 mm 0.00 in0.0 mm 0.00 in0.0 mm
03:20 AM 58.9°F14.9°C 58.6°F14.8°C 99% Calm Calm 4.0 mph6.4 kmh 29.81 in1009.5 mb 0.00 in0.0 mm 0.00 in0.0 mm 0.00 in0.0 mm
03:28 AM 59.1°F15.1°C 58.8°F14.9°C 99% 3.0 mph SE4.8 kmh SE 5.0 mph8.0 kmh 29.81 in1009.5 mb 0.00 in0.0 mm 0.00 in0.0 mm 0.00 in0.0 mm
03:36 AM 59.2°F15.1°C 58.9°F14.9°C 99% 2.0 mph SE3.2 kmh SE 5.0 mph8.0 kmh 29.80 in1009.1 mb 0.00 in0.0 mm 0.00 in0.0 mm 0.00 in0.0 mm
03:44 AM 59.4°F15.2°C 59.1°F15.1°C 99% 1.0 mph SE1.6 kmh SE 5.0 mph8.0 kmh 29.80 in1009.1 mb 0.00 in0.0 mm 0.00 in0.0 mm 0.00 in0.0 mm
03:52 AM 59.5°F15.3°C 59.2°F15.1°C 99% Calm Calm -- 29.80 in1009.1 mb 0.00 in0.0 mm 0.00 in0.0 mm 0.00 in0.0 mm
04:00 AM 59.6°F15.3°C 59.3°F15.2°C 99% 4.0 mph SSW6.4 kmh SSW 8.0 mph12.9 kmh 29.80 in1009.1 mb 0.00 in0.0 mm 0.00 in0.0 mm 0.00 in0.0 mm
04:08 AM 59.7°F15.4°C 59.4°F15.2°C 99% 5.0 mph SSW8.0 kmh SSW 6.0 mph9.7 kmh 29.79 in1008.8 mb 0.00 in0.0 mm 0.00 in0.0 mm 0.00 in0.0 mm
04:16 AM 59.7°F15.4°C 59.4°F15.2°C 99% 3.0 mph S4.8 kmh S 5.0 mph8.0 kmh 29.79 in1008.8 mb 0.00 in0.0 mm 0.00 in0.0 mm 0.00 in0.0 mm
04:24 AM 59.8°F15.4°C 59.5°F15.3°C 99% 4.0 mph SW6.4 kmh SW 6.0 mph9.7 kmh 29.79 in1008.8 mb 0.00 in0.0 mm 0.00 in0.0 mm 0.00 in0.0 mm
04:32 AM 59.9°F15.5°C 59.6°F15.3°C 99% 2.0 mph S3.2 kmh S 3.0 mph4.8 kmh 29.80 in1009.1 mb 0.00 in0.0 mm 0.00 in0.0 mm 0.00 in0.0 mm
04:40 AM 60.0°F15.6°C 59.7°F15.4°C 99% 5.0 mph SW8.0 kmh SW 11.0 mph17.7 kmh 29.81 in1009.5 mb 0.00 in0.0 mm 0.00 in0.0 mm 0.00 in0.0 mm
04:48 AM 60.1°F15.6°C 59.8°F15.4°C 99% 5.0 mph SE8.0 kmh SE 9.0 mph14.5 kmh 29.81 in1009.5 mb 0.00 in0.0 mm 0.00 in0.0 mm 0.00 in0.0 mm
04:56 AM 60.2°F15.7°C 59.9°F15.5°C 99% 5.0 mph S8.0 kmh S 12.0 mph19.3 kmh 29.81 in1009.5 mb 0.01 in0.3 mm 0.08 in2.0 mm 0.01 in0.3 mm
05:04 AM 60.3°F15.7°C 60.0°F15.6°C 99% 4.0 mph SSE6.4 kmh SSE 11.0 mph17.7 kmh 29.81 in1009.5 mb 0.01 in0.3 mm 0.00 in0.0 mm 0.01 in0.3 mm
05:12 AM 60.2°F15.7°C 59.9°F15.5°C 99% 3.0 mph S4.8 kmh S 11.0 mph17.7 kmh 29.81 in1009.5 mb 0.01 in0.3 mm 0.00 in0.0 mm 0.01 in0.3 mm
05:20 AM 60.1°F15.6°C 59.5°F15.3°C 98% 3.0 mph S4.8 kmh S 8.0 mph12.9 kmh 29.80 in1009.1 mb 0.01 in0.3 mm 0.00 in0.0 mm 0.01 in0.3 mm
05:28 AM 60.1°F15.6°C 59.5°F15.3°C 98% 1.0 mph SSE1.6 kmh SSE 3.0 mph4.8 kmh 29.79 in1008.8 mb 0.01 in0.3 mm 0.00 in0.0 mm 0.01 in0.3 mm
05:36 AM 60.0°F15.6°C 59.4°F15.2°C 98% 3.0 mph S4.8 kmh S 6.0 mph9.7 kmh 29.78 in1008.5 mb 0.02 in0.5 mm 0.08 in2.0 mm 0.02 in0.5 mm
05:44 AM 59.8°F15.4°C 59.2°F15.1°C 98% 2.0 mph SSE3.2 kmh SSE 4.0 mph6.4 kmh 29.78 in1008.5 mb 0.02 in0.5 mm 0.00 in0.0 mm 0.02 in0.5 mm
05:52 AM 59.7°F15.4°C 59.1°F15.1°C 98% Calm Calm 3.0 mph4.8 kmh 29.78 in1008.5 mb 0.02 in0.5 mm 0.00 in0.0 mm 0.02 in0.5 mm
06:00 AM 59.5°F15.3°C 58.9°F14.9°C 98% 1.0 mph ESE1.6 kmh ESE 7.0 mph11.3 kmh 29.78 in1008.5 mb 0.01 in0.3 mm 0.00 in0.0 mm 0.02 in0.5 mm
06:08 AM 59.4°F15.2°C 58.8°F14.9°C 98% Calm Calm 1.0 mph1.6 kmh 29.78 in1008.5 mb 0.01 in0.3 mm 0.00 in0.0 mm 0.02 in0.5 mm
06:16 AM 59.4°F15.2°C 58.8°F14.9°C 98% 1.0 mph ESE1.6 kmh ESE 1.0 mph1.6 kmh 29.78 in1008.5 mb 0.01 in0.3 mm 0.00 in0.0 mm 0.02 in0.5 mm
06:24 AM 59.3°F15.2°C 58.7°F14.8°C 98% Calm Calm 2.0 mph3.2 kmh 29.77 in1008.1 mb 0.01 in0.3 mm 0.00 in0.0 mm 0.02 in0.5 mm
06:32 AM 59.2°F15.1°C 58.6°F14.8°C 98% 1.0 mph SSE1.6 kmh SSE 1.0 mph1.6 kmh 29.77 in1008.1 mb 0.00 in0.0 mm 0.00 in0.0 mm 0.02 in0.5 mm
06:40 AM 59.1°F15.1°C 58.5°F14.7°C 98% Calm Calm 2.0 mph3.2 kmh 29.78 in1008.5 mb 0.00 in0.0 mm 0.00 in0.0 mm 0.02 in0.5 mm
06:48 AM 59.2°F15.1°C 58.6°F14.8°C 98% Calm Calm 2.0 mph3.2 kmh 29.77 in1008.1 mb 0.00 in0.0 mm 0.00 in0.0 mm 0.02 in0.5 mm
06:56 AM 59.1°F15.1°C 58.5°F14.7°C 98% 3.0 mph SSW4.8 kmh SSW 4.0 mph6.4 kmh 29.76 in1007.8 mb 0.00 in0.0 mm 0.00 in0.0 mm 0.02 in0.5 mm
07:04 AM 59.1°F15.1°C 58.5°F14.7°C 98% Calm Calm 2.0 mph3.2 kmh 29.76 in1007.8 mb 0.00 in0.0 mm 0.00 in0.0 mm 0.02 in0.5 mm
07:12 AM 59.2°F15.1°C 58.6°F14.8°C 98% 3.0 mph S4.8 kmh S 7.0 mph11.3 kmh 29.76 in1007.8 mb 0.00 in0.0 mm 0.00 in0.0 mm 0.02 in0.5 mm
07:20 AM 59.3°F15.2°C 58.7°F14.8°C 98% 3.0 mph SE4.8 kmh SE 5.0 mph8.0 kmh 29.76 in1007.8 mb 0.00 in0.0 mm 0.00 in0.0 mm 0.02 in0.5 mm
07:28 AM 59.3°F15.2°C 58.7°F14.8°C 98% 1.0 mph WSW1.6 kmh WSW 5.0 mph8.0 kmh 29.75 in1007.5 mb 0.00 in0.0 mm 0.00 in0.0 mm 0.02 in0.5 mm
07:36 AM 59.4°F15.2°C 58.8°F14.9°C 98% 1.0 mph ENE1.6 kmh ENE 5.0 mph8.0 kmh 29.75 in1007.5 mb 0.00 in0.0 mm 0.00 in0.0 mm 0.02 in0.5 mm
07:44 AM 59.4°F15.2°C 58.8°F14.9°C 98% Calm Calm 2.0 mph3.2 kmh 29.75 in1007.5 mb 0.00 in0.0 mm 0.00 in0.0 mm 0.02 in0.5 mm
07:52 AM 59.5°F15.3°C 58.9°F14.9°C 98% 4.0 mph ESE6.4 kmh ESE 4.0 mph6.4 kmh 29.75 in1007.5 mb 0.00 in0.0 mm 0.00 in0.0 mm 0.02 in0.5 mm
08:00 AM 59.5°F15.3°C 58.9°F14.9°C 98% Calm Calm 6.0 mph9.7 kmh 29.75 in1007.5 mb 0.01 in0.3 mm 0.01 in0.3 mm 0.03 in0.8 mm
08:08 AM 59.6°F15.3°C 59.0°F15.0°C 98% 3.0 mph ESE4.8 kmh ESE 4.0 mph6.4 kmh 29.74 in1007.1 mb 0.02 in0.5 mm 0.08 in2.0 mm 0.04 in1.0 mm
08:16 AM 59.7°F15.4°C 59.1°F15.1°C 98% 2.0 mph SE3.2 kmh SE 5.0 mph8.0 kmh 29.73 in1006.8 mb 0.03 in0.8 mm 0.08 in2.0 mm 0.05 in1.3 mm
08:24 AM 59.7°F15.4°C 59.1°F15.1°C 98% 3.0 mph SSE4.8 kmh SSE 4.0 mph6.4 kmh 29.74 in1007.1 mb 0.04 in1.0 mm 0.08 in2.0 mm 0.06 in1.5 mm
08:32 AM 59.7°F15.4°C 59.1°F15.1°C 98% 1.0 mph SSE1.6 kmh SSE 1.0 mph1.6 kmh 29.74 in1007.1 mb 0.07 in1.8 mm 0.23 in5.8 mm 0.09 in2.3 mm
08:40 AM 59.7°F15.4°C 59.1°F15.1°C 98% 2.0 mph SSW3.2 kmh SSW 8.0 mph12.9 kmh 29.74 in1007.1 mb 0.11 in2.8 mm 0.30 in7.6 mm 0.13 in3.3 mm
08:48 AM 59.7°F15.4°C 59.1°F15.1°C 98% 4.0 mph S6.4 kmh S 5.0 mph8.0 kmh 29.73 in1006.8 mb 0.14 in3.6 mm 0.23 in5.8 mm 0.16 in4.1 mm
08:56 AM 59.8°F15.4°C 59.2°F15.1°C 98% 3.0 mph S4.8 kmh S 7.0 mph11.3 kmh 29.73 in1006.8 mb 0.19 in4.8 mm 0.38 in9.7 mm 0.21 in5.3 mm
09:04 AM 59.8°F15.4°C 59.2°F15.1°C 98% 4.0 mph SW6.4 kmh SW 8.0 mph12.9 kmh 29.74 in1007.1 mb 0.21 in5.3 mm 0.02 in0.5 mm 0.23 in5.8 mm
09:12 AM 58.9°F14.9°C 57.2°F14.0°C 94% 4.0 mph W6.4 kmh W 5.0 mph8.0 kmh 29.75 in1007.5 mb 0.24 in6.1 mm 0.23 in5.8 mm 0.26 in6.6 mm
09:20 AM 57.2°F14.0°C 55.2°F12.9°C 93% 2.0 mph SW3.2 kmh SW 8.0 mph12.9 kmh 29.75 in1007.5 mb 0.25 in6.4 mm 0.08 in2.0 mm 0.27 in6.9 mm
09:28 AM 56.3°F13.5°C 54.6°F12.6°C 94% 1.0 mph WSW1.6 kmh WSW 2.0 mph3.2 kmh 29.77 in1008.1 mb 0.24 in6.1 mm 0.00 in0.0 mm 0.27 in6.9 mm
09:36 AM 55.7°F13.2°C 54.3°F12.4°C 95% 2.0 mph SW3.2 kmh SW 2.0 mph3.2 kmh 29.76 in1007.8 mb 0.22 in5.6 mm 0.00 in0.0 mm 0.27 in6.9 mm
09:44 AM 55.3°F12.9°C 53.9°F12.2°C 95% Calm Calm 4.0 mph6.4 kmh 29.76 in1007.8 mb 0.20 in5.1 mm 0.00 in0.0 mm 0.27 in6.9 mm
09:52 AM 55.2°F12.9°C 54.1°F12.3°C 96% Calm Calm -- 29.76 in1007.8 mb 0.19 in4.8 mm 0.00 in0.0 mm 0.27 in6.9 mm
10:00 AM 55.1°F12.8°C 54.0°F12.2°C 96% 1.0 mph SW1.6 kmh SW 2.0 mph3.2 kmh 29.77 in1008.1 mb 0.16 in4.1 mm 0.00 in0.0 mm 0.27 in6.9 mm
10:08 AM 55.1°F12.8°C 54.3°F12.4°C 97% 1.0 mph S1.6 kmh S 1.0 mph1.6 kmh 29.78 in1008.5 mb 0.14 in3.6 mm 0.00 in0.0 mm 0.27 in6.9 mm
10:16 AM 55.0°F12.8°C 54.2°F12.3°C 97% Calm Calm 2.0 mph3.2 kmh 29.78 in1008.5 mb 0.13 in3.3 mm 0.00 in0.0 mm 0.27 in6.9 mm
10:24 AM 54.8°F12.7°C 54.0°F12.2°C 97% 1.0 mph SE1.6 kmh SE 2.0 mph3.2 kmh 29.78 in1008.5 mb 0.13 in3.3 mm 0.00 in0.0 mm 0.27 in6.9 mm
10:32 AM 54.7°F12.6°C 53.9°F12.2°C 97% Calm Calm 1.0 mph1.6 kmh 29.78 in1008.5 mb 0.15 in3.8 mm 0.15 in3.8 mm 0.29 in7.4 mm
10:40 AM 54.6°F12.6°C 53.8°F12.1°C 97% 1.0 mph SSE1.6 kmh SSE 2.0 mph3.2 kmh 29.77 in1008.1 mb 0.16 in4.1 mm 0.08 in2.0 mm 0.30 in7.6 mm
10:48 AM 54.6°F12.6°C 54.1°F12.3°C 98% 1.0 mph S1.6 kmh S 2.0 mph3.2 kmh 29.76 in1007.8 mb 0.17 in4.3 mm 0.08 in2.0 mm 0.31 in7.9 mm
10:56 AM 54.7°F12.6°C 54.2°F12.3°C 98% 1.0 mph SSW1.6 kmh SSW 3.0 mph4.8 kmh 29.76 in1007.8 mb 0.18 in4.6 mm 0.07 in1.8 mm 0.32 in8.1 mm
11:04 AM 54.7°F12.6°C 54.2°F12.3°C 98% Calm Calm 3.0 mph4.8 kmh 29.75 in1007.5 mb 0.19 in4.8 mm 0.01 in0.3 mm 0.33 in8.4 mm
11:12 AM 54.8°F12.7°C 54.3°F12.4°C 98% 2.0 mph E3.2 kmh E 3.0 mph4.8 kmh 29.73 in1006.8 mb 0.20 in5.1 mm 0.08 in2.0 mm 0.34 in8.6 mm
11:20 AM 55.2°F12.9°C 54.7°F12.6°C 98% Calm Calm -- 29.72 in1006.4 mb 0.17 in4.3 mm 0.00 in0.0 mm 0.34 in8.6 mm
11:28 AM 55.7°F13.2°C 55.2°F12.9°C 98% Calm Calm 2.0 mph3.2 kmh 29.71 in1006.1 mb 0.14 in3.6 mm 0.00 in0.0 mm 0.34 in8.6 mm
11:36 AM 55.7°F13.2°C 55.2°F12.9°C 98% 1.0 mph SE1.6 kmh SE 3.0 mph4.8 kmh 29.70 in1005.8 mb 0.13 in3.3 mm 0.00 in0.0 mm 0.34 in8.6 mm
11:44 AM 55.7°F13.2°C 55.2°F12.9°C 98% Calm Calm 2.0 mph3.2 kmh 29.69 in1005.4 mb 0.09 in2.3 mm 0.00 in0.0 mm 0.34 in8.6 mm
11:52 AM 55.9°F13.3°C 55.4°F13.0°C 98% Calm Calm -- 29.69 in1005.4 mb 0.06 in1.5 mm 0.00 in0.0 mm 0.34 in8.6 mm
12:00 PM 55.9°F13.3°C 55.4°F13.0°C 98% 3.0 mph S4.8 kmh S 6.0 mph9.7 kmh 29.68 in1005.1 mb 0.04 in1.0 mm 0.00 in0.0 mm 0.34 in8.6 mm
12:08 PM 56.0°F13.3°C 55.2°F12.9°C 97% Calm Calm 1.0 mph1.6 kmh 29.69 in1005.4 mb 0.01 in0.3 mm 0.00 in0.0 mm 0.34 in8.6 mm
12:16 PM 56.0°F13.3°C 55.2°F12.9°C 97% 1.0 mph SW1.6 kmh SW 2.0 mph3.2 kmh 29.69 in1005.4 mb 0.00 in0.0 mm 0.00 in0.0 mm 0.34 in8.6 mm
12:24 PM 56.1°F13.4°C 55.3°F12.9°C 97% 3.0 mph SW4.8 kmh SW 3.0 mph4.8 kmh 29.68 in1005.1 mb 0.00 in0.0 mm 0.00 in0.0 mm 0.34 in8.6 mm
12:32 PM 56.1°F13.4°C 55.0°F12.8°C 96% 1.0 mph SE1.6 kmh SE 1.0 mph1.6 kmh 29.68 in1005.1 mb 0.00 in0.0 mm 0.00 in0.0 mm 0.34 in8.6 mm
12:40 PM 56.2°F13.4°C 55.4°F13.0°C 97% Calm Calm 4.0 mph6.4 kmh 29.67 in1004.7 mb 0.00 in0.0 mm 0.00 in0.0 mm 0.34 in8.6 mm
12:48 PM 56.1°F13.4°C 55.3°F12.9°C 97% 1.0 mph SW1.6 kmh SW 2.0 mph3.2 kmh 29.67 in1004.7 mb 0.01 in0.3 mm 0.08 in2.0 mm 0.35 in8.9 mm
12:56 PM 56.1°F13.4°C 55.0°F12.8°C 96% 1.0 mph SW1.6 kmh SW 4.0 mph6.4 kmh 29.67 in1004.7 mb 0.01 in0.3 mm 0.00 in0.0 mm 0.35 in8.9 mm
01:04 PM 56.0°F13.3°C 55.2°F12.9°C 97% 4.0 mph S6.4 kmh S 4.0 mph6.4 kmh 29.67 in1004.7 mb 0.03 in0.8 mm 0.02 in0.5 mm 0.37 in9.4 mm
01:12 PM 55.9°F13.3°C 54.8°F12.7°C 96% Calm Calm -- 29.66 in1004.4 mb 0.03 in0.8 mm 0.00 in0.0 mm 0.37 in9.4 mm
01:20 PM 55.8°F13.2°C 54.7°F12.6°C 96% 1.0 mph SW1.6 kmh SW 8.0 mph12.9 kmh 29.66 in1004.4 mb 0.03 in0.8 mm 0.00 in0.0 mm 0.37 in9.4 mm
01:28 PM 55.7°F13.2°C 54.9°F12.7°C 97% 4.0 mph SW6.4 kmh SW 6.0 mph9.7 kmh 29.65 in1004.1 mb 0.03 in0.8 mm 0.00 in0.0 mm 0.37 in9.4 mm
01:36 PM 55.7°F13.2°C 54.6°F12.6°C 96% 4.0 mph WSW6.4 kmh WSW 6.0 mph9.7 kmh 29.65 in1004.1 mb 0.04 in1.0 mm 0.08 in2.0 mm 0.38 in9.7 mm
01:44 PM 55.5°F13.1°C 54.4°F12.4°C 96% 2.0 mph SW3.2 kmh SW 4.0 mph6.4 kmh 29.65 in1004.1 mb 0.06 in1.5 mm 0.15 in3.8 mm 0.40 in10.2 mm
01:52 PM 55.4°F13.0°C 54.6°F12.6°C 97% 4.0 mph SW6.4 kmh SW 4.0 mph6.4 kmh 29.64 in1003.7 mb 0.06 in1.5 mm 0.00 in0.0 mm 0.40 in10.2 mm
02:00 PM 55.4°F13.0°C 54.3°F12.4°C 96% 2.0 mph SW3.2 kmh SW 4.0 mph6.4 kmh 29.64 in1003.7 mb 0.05 in1.3 mm 0.00 in0.0 mm 0.40 in10.2 mm
02:08 PM 55.3°F12.9°C 54.5°F12.5°C 97% 3.0 mph WSW4.8 kmh WSW 7.0 mph11.3 kmh 29.65 in1004.1 mb 0.04 in1.0 mm 0.00 in0.0 mm 0.40 in10.2 mm
02:16 PM 55.3°F12.9°C 54.2°F12.3°C 96% 1.0 mph SW1.6 kmh SW 2.0 mph3.2 kmh 29.64 in1003.7 mb 0.04 in1.0 mm 0.00 in0.0 mm 0.40 in10.2 mm
02:24 PM 55.3°F12.9°C 54.5°F12.5°C 97% 3.0 mph SW4.8 kmh SW 6.0 mph9.7 kmh 29.64 in1003.7 mb 0.04 in1.0 mm 0.00 in0.0 mm 0.40 in10.2 mm
02:32 PM 55.2°F12.9°C 54.4°F12.4°C 97% 7.0 mph SW11.3 kmh SW 8.0 mph12.9 kmh 29.64 in1003.7 mb 0.04 in1.0 mm 0.00 in0.0 mm 0.40 in10.2 mm
02:40 PM 55.2°F12.9°C 54.1°F12.3°C 96% 4.0 mph W6.4 kmh W 8.0 mph12.9 kmh 29.63 in1003.4 mb 0.03 in0.8 mm 0.00 in0.0 mm 0.40 in10.2 mm
02:48 PM 55.3°F12.9°C 54.2°F12.3°C 96% 9.0 mph SW14.5 kmh SW 11.0 mph17.7 kmh 29.63 in1003.4 mb 0.00 in0.0 mm 0.00 in0.0 mm 0.40 in10.2 mm
02:56 PM 55.5°F13.1°C 54.4°F12.4°C 96% 7.0 mph WSW11.3 kmh WSW 8.0 mph12.9 kmh 29.62 in1003.0 mb 0.00 in0.0 mm 0.00 in0.0 mm 0.40 in10.2 mm
03:04 PM 55.8°F13.2°C 54.7°F12.6°C 96% 3.0 mph SSE4.8 kmh SSE 6.0 mph9.7 kmh 29.63 in1003.4 mb 0.00 in0.0 mm 0.00 in0.0 mm 0.40 in10.2 mm
03:12 PM 56.0°F13.3°C 54.9°F12.7°C 96% 4.0 mph S6.4 kmh S 4.0 mph6.4 kmh 29.62 in1003.0 mb 0.00 in0.0 mm 0.00 in0.0 mm 0.40 in10.2 mm
03:20 PM 56.2°F13.4°C 54.8°F12.7°C 95% 2.0 mph WSW3.2 kmh WSW 6.0 mph9.7 kmh 29.62 in1003.0 mb 0.00 in0.0 mm 0.00 in0.0 mm 0.40 in10.2 mm
03:28 PM 56.3°F13.5°C 54.6°F12.6°C 94% 2.0 mph SW3.2 kmh SW 4.0 mph6.4 kmh 29.62 in1003.0 mb 0.00 in0.0 mm 0.00 in0.0 mm 0.40 in10.2 mm
03:36 PM 56.3°F13.5°C 54.6°F12.6°C 94% 4.0 mph WSW6.4 kmh WSW 7.0 mph11.3 kmh 29.63 in1003.4 mb 0.00 in0.0 mm 0.00 in0.0 mm 0.40 in10.2 mm
03:44 PM 54.3°F12.4°C 52.3°F11.3°C 93% 2.0 mph SW3.2 kmh SW 7.0 mph11.3 kmh 29.64 in1003.7 mb 0.02 in0.5 mm 0.15 in3.8 mm 0.42 in10.7 mm
03:52 PM 52.8°F11.6°C 51.4°F10.8°C 95% Calm Calm 8.0 mph12.9 kmh 29.64 in1003.7 mb 0.03 in0.8 mm 0.08 in2.0 mm 0.43 in10.9 mm
04:00 PM 51.4°F10.8°C 50.0°F10.0°C 95% 3.0 mph W4.8 kmh W 5.0 mph8.0 kmh 29.65 in1004.1 mb 0.04 in1.0 mm 0.01 in0.3 mm 0.44 in11.2 mm
04:08 PM 50.1°F10.1°C 48.7°F9.3°C 95% 2.0 mph NNW3.2 kmh NNW 4.0 mph6.4 kmh 29.66 in1004.4 mb 0.04 in1.0 mm 0.00 in0.0 mm 0.44 in11.2 mm
04:16 PM 49.2°F9.6°C 48.1°F8.9°C 96% 2.0 mph WNW3.2 kmh WNW 4.0 mph6.4 kmh 29.66 in1004.4 mb 0.04 in1.0 mm 0.00 in0.0 mm 0.44 in11.2 mm
04:24 PM 48.6°F9.2°C 47.5°F8.6°C 96% 1.0 mph WNW1.6 kmh WNW 9.0 mph14.5 kmh 29.67 in1004.7 mb 0.04 in1.0 mm 0.00 in0.0 mm 0.44 in11.2 mm
04:32 PM 48.2°F9.0°C 47.1°F8.4°C 96% 2.0 mph W3.2 kmh W 5.0 mph8.0 kmh 29.67 in1004.7 mb 0.04 in1.0 mm 0.00 in0.0 mm 0.44 in11.2 mm
04:40 PM 47.6°F8.7°C 46.2°F7.9°C 95% 5.0 mph SW8.0 kmh SW 9.0 mph14.5 kmh 29.68 in1005.1 mb 0.04 in1.0 mm 0.00 in0.0 mm 0.44 in11.2 mm
04:48 PM 47.0°F8.3°C 45.7°F7.6°C 95% 3.0 mph SW4.8 kmh SW 5.0 mph8.0 kmh 29.69 in1005.4 mb 0.02 in0.5 mm 0.00 in0.0 mm 0.44 in11.2 mm
04:56 PM 46.7°F8.2°C 45.6°F7.6°C 96% 4.0 mph NW6.4 kmh NW 9.0 mph14.5 kmh 29.69 in1005.4 mb 0.01 in0.3 mm 0.00 in0.0 mm 0.44 in11.2 mm
05:04 PM 46.3°F7.9°C 45.2°F7.3°C 96% 5.0 mph W8.0 kmh W 8.0 mph12.9 kmh 29.70 in1005.8 mb 0.00 in0.0 mm 0.00 in0.0 mm 0.44 in11.2 mm
05:12 PM 45.1°F7.3°C 43.5°F6.4°C 94% 6.0 mph WSW9.7 kmh WSW 6.0 mph9.7 kmh 29.71 in1006.1 mb 0.00 in0.0 mm 0.00 in0.0 mm 0.44 in11.2 mm
05:20 PM 43.9°F6.6°C 42.3°F5.7°C 94% 3.0 mph W4.8 kmh W 9.0 mph14.5 kmh 29.71 in1006.1 mb 0.00 in0.0 mm 0.00 in0.0 mm 0.44 in11.2 mm
05:28 PM 43.4°F6.3°C 42.1°F5.6°C 95% 4.0 mph W6.4 kmh W 5.0 mph8.0 kmh 29.72 in1006.4 mb 0.00 in0.0 mm 0.00 in0.0 mm 0.44 in11.2 mm
05:36 PM 42.5°F5.8°C 40.9°F4.9°C 94% 10.0 mph WSW16.1 kmh WSW 10.0 mph16.1 kmh 29.74 in1007.1 mb 0.00 in0.0 mm 0.00 in0.0 mm 0.44 in11.2 mm
05:44 PM 41.2°F5.1°C 39.1°F3.9°C 92% 7.0 mph WSW11.3 kmh WSW 9.0 mph14.5 kmh 29.74 in1007.1 mb 0.00 in0.0 mm 0.00 in0.0 mm 0.44 in11.2 mm
05:52 PM 40.1°F4.5°C 38.0°F3.3°C 92% 3.0 mph WSW4.8 kmh WSW 3.0 mph4.8 kmh 29.76 in1007.8 mb 0.00 in0.0 mm 0.00 in0.0 mm 0.44 in11.2 mm
06:00 PM 39.2°F4.0°C 37.4°F3.0°C 93% 5.0 mph NW8.0 kmh NW 13.0 mph20.9 kmh 29.76 in1007.8 mb 0.00 in0.0 mm 0.00 in0.0 mm 0.44 in11.2 mm
06:08 PM 38.6°F3.7°C 36.5°F2.5°C 92% 6.0 mph WSW9.7 kmh WSW 9.0 mph14.5 kmh 29.77 in1008.1 mb 0.00 in0.0 mm 0.00 in0.0 mm 0.44 in11.2 mm
06:16 PM 38.3°F3.5°C 36.5°F2.5°C 93% 4.0 mph WSW6.4 kmh WSW 9.0 mph14.5 kmh 29.78 in1008.5 mb 0.00 in0.0 mm 0.00 in0.0 mm 0.44 in11.2 mm
06:24 PM 37.5°F3.1°C 34.8°F1.6°C 90% 7.0 mph WNW11.3 kmh WNW 16.0 mph25.7 kmh 29.79 in1008.8 mb 0.00 in0.0 mm 0.00 in0.0 mm 0.44 in11.2 mm
06:32 PM 36.9°F2.7°C 34.5°F1.4°C 91% 4.0 mph W6.4 kmh W 7.0 mph11.3 kmh 29.79 in1008.8 mb 0.00 in0.0 mm 0.00 in0.0 mm 0.44 in11.2 mm
06:40 PM 36.7°F2.6°C 34.6°F1.4°C 92% 4.0 mph WNW6.4 kmh WNW 8.0 mph12.9 kmh 29.80 in1009.1 mb 0.00 in0.0 mm 0.00 in0.0 mm 0.44 in11.2 mm
06:48 PM 36.4°F2.4°C 34.0°F1.1°C 91% 6.0 mph NW9.7 kmh NW 7.0 mph11.3 kmh 29.81 in1009.5 mb 0.00 in0.0 mm 0.00 in0.0 mm 0.44 in11.2 mm
06:56 PM 35.9°F2.2°C 33.5°F0.8°C 91% 5.0 mph W8.0 kmh W 12.0 mph19.3 kmh 29.81 in1009.5 mb 0.00 in0.0 mm 0.00 in0.0 mm 0.44 in11.2 mm
07:04 PM 35.5°F1.9°C 33.1°F0.6°C 91% 3.0 mph SW4.8 kmh SW 8.0 mph12.9 kmh 29.81 in1009.5 mb 0.00 in0.0 mm 0.00 in0.0 mm 0.44 in11.2 mm
07:12 PM 35.2°F1.8°C 32.8°F0.4°C 91% 4.0 mph WSW6.4 kmh WSW 4.0 mph6.4 kmh 29.82 in1009.8 mb 0.00 in0.0 mm 0.00 in0.0 mm 0.44 in11.2 mm
07:20 PM 34.9°F1.6°C 32.8°F0.4°C 92% 4.0 mph WSW6.4 kmh WSW 5.0 mph8.0 kmh 29.83 in1010.2 mb 0.00 in0.0 mm 0.00 in0.0 mm 0.44 in11.2 mm
07:28 PM 34.8°F1.6°C 32.7°F0.4°C 92% 6.0 mph WSW9.7 kmh WSW 6.0 mph9.7 kmh 29.83 in1010.2 mb 0.00 in0.0 mm 0.00 in0.0 mm 0.44 in11.2 mm
07:36 PM 34.5°F1.4°C 32.2°F0.1°C 91% 1.0 mph WNW1.6 kmh WNW 11.0 mph17.7 kmh 29.84 in1010.5 mb 0.00 in0.0 mm 0.00 in0.0 mm 0.44 in11.2 mm
07:44 PM 34.4°F1.3°C 32.1°F0.1°C 91% 1.0 mph SSW1.6 kmh SSW 3.0 mph4.8 kmh 29.84 in1010.5 mb 0.00 in0.0 mm 0.00 in0.0 mm 0.44 in11.2 mm
07:52 PM 34.2°F1.2°C 31.9°F-0.1°C 91% 3.0 mph NW4.8 kmh NW 3.0 mph4.8 kmh 29.85 in1010.8 mb 0.00 in0.0 mm 0.00 in0.0 mm 0.44 in11.2 mm
08:00 PM 34.1°F1.2°C 31.8°F-0.1°C 91% 1.0 mph NW1.6 kmh NW 9.0 mph14.5 kmh 29.85 in1010.8 mb 0.00 in0.0 mm 0.00 in0.0 mm 0.44 in11.2 mm
08:08 PM 33.7°F0.9°C 31.1°F-0.5°C 90% 3.0 mph WNW4.8 kmh WNW 13.0 mph20.9 kmh 29.85 in1010.8 mb 0.00 in0.0 mm 0.00 in0.0 mm 0.44 in11.2 mm
08:16 PM 33.5°F0.8°C 30.9°F-0.6°C 90% 8.0 mph W12.9 kmh W 8.0 mph12.9 kmh 29.86 in1011.2 mb 0.00 in0.0 mm 0.00 in0.0 mm 0.44 in11.2 mm
08:24 PM 32.9°F0.5°C 30.0°F-1.1°C 89% 4.0 mph NNW6.4 kmh NNW 12.0 mph19.3 kmh 29.86 in1011.2 mb 0.00 in0.0 mm 0.00 in0.0 mm 0.44 in11.2 mm
08:32 PM 32.5°F0.3°C 29.6°F-1.3°C 89% 3.0 mph W4.8 kmh W 3.0 mph4.8 kmh 29.87 in1011.5 mb 0.00 in0.0 mm 0.00 in0.0 mm 0.44 in11.2 mm
11:22 PM 27.1°F-2.7°C 22.9°F-5.1°C 84% 6.0 mph NW9.7 kmh NW 6.0 mph9.7 kmh 29.97 in1014.9 mb 0.00 in0.0 mm 0.00 in0.0 mm 0.44 in11.2 mm
11:30 PM 26.6°F-3.0°C 22.1°F-5.5°C 83% 5.0 mph WSW8.0 kmh WSW 16.0 mph25.7 kmh 29.97 in1014.9 mb 0.00 in0.0 mm 0.00 in0.0 mm 0.44 in11.2 mm
11:38 PM 26.5°F-3.1°C 22.3°F-5.4°C 84% 1.0 mph SW1.6 kmh SW 4.0 mph6.4 kmh 29.97 in1014.9 mb 0.00 in0.0 mm 0.00 in0.0 mm 0.44 in11.2 mm
11:46 PM 26.4°F-3.1°C 22.5°F-5.3°C 85% 3.0 mph NNW4.8 kmh NNW 6.0 mph9.7 kmh 29.97 in1014.9 mb 0.00 in0.0 mm 0.00 in0.0 mm 0.44 in11.2 mm
11:54 PM 26.2°F-3.2°C 22.0°F-5.6°C 84% 4.0 mph SW6.4 kmh SW 9.0 mph14.5 kmh 29.97 in1014.9 mb 0.00 in0.0 mm 0.00 in0.0 mm 0.44 in11.2 mm